Airfield :
LOGIN :

Register | Disclaimer

   EN    FR    IT 

 










Legend :    VFR   Marginal VFR   IFR   Intensive IFR   Very Intensive IFR
Visi :
Ceiling :
>= 8 km
>= 3000ft
5 to 8 km
1000 to 3000 ft
1500m to 5 km
500 to 1000 ft
800 to 1500m
200 to 500 ft
< 800m
< 200 ft
Symbols :   Thunderstorms  Fog  Heavy snow  Heavy precipitations  Wind > 20 kt
SIGMETs :     Misc.  Thunderstorms  Icing  Turbulence  Mountain Waves  Volcanic Ashes






- Airport Elevation : 3245 ft
- IATA code : TID


DAOB - Bou Chekif - Tiaret

CURRENT METAR :
  • 062200Z 00000KT 9999 FEW026 SCT220 13/10 Q1025

EXPIRED METARs :
  • 062100Z 00000KT 9999 SCT026 BKN220 14/09 Q1025
  • 062000Z 28003KT 9999 SCT026 BKN220 15/08 Q1025

TAF TAF DAOB
Valid from the 06 at 18:00 until the 07 at 18:00 UTC


061700Z 0618/0718 30010KT 9999 FEW026 SCT200
TEMPO 0618/0702 FEW030CB
PROB30
TEMPO 0618/0622 30015G25KT 5000 -TSRA FEW026CB
BECMG 0621/0624 04006KT



MET'MAP, your aeronautical weather chart ! - Copyright ORBIFLY December 2007 - Disclaimer

ORBIFLY MET'MAP TEAM :

Programming & Development : Alexandra Zaïnal
Concept & original design : Baudouin d'Aumeries
Assistance for programming : Marc-Olivier Méhu
Technical & hardware support : Manuel Goepfert

Contact : metmap@orbifly.com




SOURCES & CREDITS :

   NOAA